sensor_id;sensor_type;location;lat;lon;timestamp;pressure;altitude;pressure_sealevel;temperature;humidity
75629;BME280;64213;46.452;16.994;2023-11-19T00:00:08;100613.94;;;0.51;89.86
75629;BME280;64213;46.452;16.994;2023-11-19T00:03:15;100615.69;;;0.47;90.17
75629;BME280;64213;46.452;16.994;2023-11-19T00:06:17;100620.06;;;0.44;90.62
75629;BME280;64213;46.452;16.994;2023-11-19T00:09:20;100613.19;;;0.40;91.04
75629;BME280;64213;46.452;16.994;2023-11-19T00:12:22;100611.50;;;0.37;90.33
75629;BME280;64213;46.452;16.994;2023-11-19T00:15:26;100618.47;;;0.35;91.01
75629;BME280;64213;46.452;16.994;2023-11-19T00:18:29;100615.00;;;0.35;91.35
75629;BME280;64213;46.452;16.994;2023-11-19T00:21:32;100600.34;;;0.29;91.64
75629;BME280;64213;46.452;16.994;2023-11-19T00:24:36;100593.44;;;0.25;91.79
75629;BME280;64213;46.452;16.994;2023-11-19T00:27:39;100599.63;;;0.16;92.05
75629;BME280;64213;46.452;16.994;2023-11-19T00:30:41;100608.38;;;0.11;92.16
75629;BME280;64213;46.452;16.994;2023-11-19T00:33:44;100603.19;;;0.08;92.57
75629;BME280;64213;46.452;16.994;2023-11-19T00:36:49;100609.28;;;0.07;93.15
75629;BME280;64213;46.452;16.994;2023-11-19T00:39:52;100599.75;;;0.06;92.97
75629;BME280;64213;46.452;16.994;2023-11-19T00:42:54;100599.81;;;0.01;93.93
75629;BME280;64213;46.452;16.994;2023-11-19T00:45:56;100605.91;;;-0.02;94.34
75629;BME280;64213;46.452;16.994;2023-11-19T00:48:58;100605.09;;;-0.05;94.93
75629;BME280;64213;46.452;16.994;2023-11-19T00:52:03;100606.87;;;-0.10;94.64
75629;BME280;64213;46.452;16.994;2023-11-19T00:55:06;100611.25;;;-0.12;94.52
75629;BME280;64213;46.452;16.994;2023-11-19T00:58:09;100609.53;;;-0.15;94.78
75629;BME280;64213;46.452;16.994;2023-11-19T01:01:12;100610.41;;;-0.17;95.44
75629;BME280;64213;46.452;16.994;2023-11-19T01:04:14;100602.66;;;-0.20;95.37
75629;BME280;64213;46.452;16.994;2023-11-19T01:07:17;100600.09;;;-0.24;95.72
75629;BME280;64213;46.452;16.994;2023-11-19T01:10:20;100602.72;;;-0.25;96.14
75629;BME280;64213;46.452;16.994;2023-11-19T01:13:22;100588.94;;;-0.33;97.37
75629;BME280;64213;46.452;16.994;2023-11-19T01:16:26;100590.63;;;-0.32;97.95
75629;BME280;64213;46.452;16.994;2023-11-19T01:19:28;100588.06;;;-0.34;97.96
75629;BME280;64213;46.452;16.994;2023-11-19T01:22:31;100574.19;;;-0.33;97.56
75629;BME280;64213;46.452;16.994;2023-11-19T01:25:34;100567.25;;;-0.31;97.59
75629;BME280;64213;46.452;16.994;2023-11-19T01:28:38;100573.31;;;-0.29;96.69
75629;BME280;64213;46.452;16.994;2023-11-19T01:31:53;100569.78;;;-0.26;97.33
75629;BME280;64213;46.452;16.994;2023-11-19T01:34:55;100564.62;;;-0.28;97.44
75629;BME280;64213;46.452;16.994;2023-11-19T01:37:58;100562.84;;;-0.26;97.50
75629;BME280;64213;46.452;16.994;2023-11-19T01:41:00;100536.91;;;-0.29;97.83
75629;BME280;64213;46.452;16.994;2023-11-19T01:44:06;100540.25;;;-0.20;97.95
75629;BME280;64213;46.452;16.994;2023-11-19T01:47:09;100535.03;;;-0.16;97.88
75629;BME280;64213;46.452;16.994;2023-11-19T01:50:11;100526.25;;;-0.10;97.64
75629;BME280;64213;46.452;16.994;2023-11-19T01:53:14;100521.00;;;-0.04;96.82
75629;BME280;64213;46.452;16.994;2023-11-19T01:56:17;100527.00;;;0.01;96.90
75629;BME280;64213;46.452;16.994;2023-11-19T01:59:20;100514.78;;;0.08;96.52
75629;BME280;64213;46.452;16.994;2023-11-19T02:02:28;100509.50;;;0.12;96.58
75629;BME280;64213;46.452;16.994;2023-11-19T02:05:31;100509.41;;;0.20;96.53
75629;BME280;64213;46.452;16.994;2023-11-19T02:08:34;100517.12;;;0.25;96.32
75629;BME280;64213;46.452;16.994;2023-11-19T02:11:39;100511.87;;;0.29;96.25
75629;BME280;64213;46.452;16.994;2023-11-19T02:14:42;100501.44;;;0.32;96.71
75629;BME280;64213;46.452;16.994;2023-11-19T02:17:44;100490.97;;;0.34;96.42
75629;BME280;64213;46.452;16.994;2023-11-19T02:20:47;100478.84;;;0.34;96.53
75629;BME280;64213;46.452;16.994;2023-11-19T02:23:52;100476.19;;;0.39;96.36
75629;BME280;64213;46.452;16.994;2023-11-19T02:30:00;100463.87;;;0.47;96.19
75629;BME280;64213;46.452;16.994;2023-11-19T02:33:02;100465.56;;;0.51;96.07
75629;BME280;64213;46.452;16.994;2023-11-19T02:36:08;100468.09;;;0.54;96.00
75629;BME280;64213;46.452;16.994;2023-11-19T02:39:11;100468.00;;;0.60;95.79
75629;BME280;64213;46.452;16.994;2023-11-19T02:42:15;100472.31;;;0.64;95.66
75629;BME280;64213;46.452;16.994;2023-11-19T02:45:17;100458.28;;;0.72;95.80
75629;BME280;64213;46.452;16.994;2023-11-19T02:48:20;100448.69;;;0.75;95.45
75629;BME280;64213;46.452;16.994;2023-11-19T02:51:23;100448.56;;;0.80;94.95
75629;BME280;64213;46.452;16.994;2023-11-19T02:54:25;100440.75;;;0.81;94.65
75629;BME280;64213;46.452;16.994;2023-11-19T02:57:31;100428.59;;;0.82;94.83
75629;BME280;64213;46.452;16.994;2023-11-19T03:00:34;100432.91;;;0.83;94.79
75629;BME280;64213;46.452;16.994;2023-11-19T03:03:44;100436.25;;;0.91;94.96
75629;BME280;64213;46.452;16.994;2023-11-19T03:06:51;100428.31;;;0.97;94.92
75629;BME280;64213;46.452;16.994;2023-11-19T03:09:55;100417.06;;;0.95;94.53
75629;BME280;64213;46.452;16.994;2023-11-19T03:12:58;100404.09;;;0.92;94.67
75629;BME280;64213;46.452;16.994;2023-11-19T03:16:01;100403.06;;;1.01;94.66
75629;BME280;64213;46.452;16.994;2023-11-19T03:19:03;100397.75;;;1.05;94.96
75629;BME280;64213;46.452;16.994;2023-11-19T03:22:06;100403.88;;;1.04;95.02
75629;BME280;64213;46.452;16.994;2023-11-19T03:25:10;100399.56;;;1.02;94.86
75629;BME280;64213;46.452;16.994;2023-11-19T03:28:12;100386.53;;;1.02;95.17
75629;BME280;64213;46.452;16.994;2023-11-19T03:31:15;100381.44;;;0.96;94.67
75629;BME280;64213;46.452;16.994;2023-11-19T03:34:18;100388.34;;;0.98;94.72
75629;BME280;64213;46.452;16.994;2023-11-19T03:37:20;100391.69;;;1.06;94.74
75629;BME280;64213;46.452;16.994;2023-11-19T03:40:23;100386.34;;;1.12;94.43
75629;BME280;64213;46.452;16.994;2023-11-19T03:43:27;100368.84;;;1.19;94.53
75629;BME280;64213;46.452;16.994;2023-11-19T03:46:30;100371.34;;;1.25;94.43
75629;BME280;64213;46.452;16.994;2023-11-19T03:49:32;100370.31;;;1.32;93.99
75629;BME280;64213;46.452;16.994;2023-11-19T03:52:35;100378.84;;;1.39;93.79
75629;BME280;64213;46.452;16.994;2023-11-19T03:55:40;100369.25;;;1.41;93.55
75629;BME280;64213;46.452;16.994;2023-11-19T03:58:43;100367.44;;;1.45;93.61
75629;BME280;64213;46.452;16.994;2023-11-19T04:01:46;100355.19;;;1.48;93.00
75629;BME280;64213;46.452;16.994;2023-11-19T04:04:48;100338.66;;;1.49;92.03
75629;BME280;64213;46.452;16.994;2023-11-19T04:07:51;100325.69;;;1.46;91.58
75629;BME280;64213;46.452;16.994;2023-11-19T04:10:53;100328.41;;;1.42;90.86
75629;BME280;64213;46.452;16.994;2023-11-19T04:13:56;100311.09;;;1.39;91.75
75629;BME280;64213;46.452;16.994;2023-11-19T04:16:58;100305.69;;;1.47;92.38
75629;BME280;64213;46.452;16.994;2023-11-19T04:20:00;100301.44;;;1.43;92.34
75629;BME280;64213;46.452;16.994;2023-11-19T04:23:02;100299.62;;;1.46;93.04
75629;BME280;64213;46.452;16.994;2023-11-19T04:26:05;100292.59;;;1.50;93.05
75629;BME280;64213;46.452;16.994;2023-11-19T04:29:15;100286.44;;;1.54;92.94
75629;BME280;64213;46.452;16.994;2023-11-19T04:32:19;100277.66;;;1.58;92.29
75629;BME280;64213;46.452;16.994;2023-11-19T04:35:21;100289.69;;;1.63;92.10
75629;BME280;64213;46.452;16.994;2023-11-19T04:38:23;100280.97;;;1.65;91.67
75629;BME280;64213;46.452;16.994;2023-11-19T04:41:29;100287.81;;;1.69;91.92
75629;BME280;64213;46.452;16.994;2023-11-19T04:44:31;100282.53;;;1.72;91.85
75629;BME280;64213;46.452;16.994;2023-11-19T04:47:33;100283.38;;;1.72;91.32
75629;BME280;64213;46.452;16.994;2023-11-19T04:50:37;100279.84;;;1.75;91.28
75629;BME280;64213;46.452;16.994;2023-11-19T04:53:39;100282.44;;;1.75;91.23
75629;BME280;64213;46.452;16.994;2023-11-19T04:56:45;100276.44;;;1.71;91.35
75629;BME280;64213;46.452;16.994;2023-11-19T04:59:48;100271.37;;;1.67;91.68
75629;BME280;64213;46.452;16.994;2023-11-19T05:02:51;100264.56;;;1.59;92.66
75629;BME280;64213;46.452;16.994;2023-11-19T05:05:53;100268.25;;;1.51;93.07
75629;BME280;64213;46.452;16.994;2023-11-19T05:08:58;100267.47;;;1.47;92.67
75629;BME280;64213;46.452;16.994;2023-11-19T05:12:02;100263.97;;;1.48;93.25
75629;BME280;64213;46.452;16.994;2023-11-19T05:15:05;100263.13;;;1.48;93.17
75629;BME280;64213;46.452;16.994;2023-11-19T05:18:07;100258.69;;;1.51;93.11
75629;BME280;64213;46.452;16.994;2023-11-19T05:21:11;100253.41;;;1.53;93.31
75629;BME280;64213;46.452;16.994;2023-11-19T05:24:13;100247.34;;;1.52;93.44
75629;BME280;64213;46.452;16.994;2023-11-19T05:27:16;100258.63;;;1.54;93.41
75629;BME280;64213;46.452;16.994;2023-11-19T05:30:18;100258.50;;;1.59;93.36
75629;BME280;64213;46.452;16.994;2023-11-19T05:33:21;100251.44;;;1.62;93.11
75629;BME280;64213;46.452;16.994;2023-11-19T05:36:24;100245.28;;;1.67;92.66
75629;BME280;64213;46.452;16.994;2023-11-19T05:39:28;100245.25;;;1.68;92.62
75629;BME280;64213;46.452;16.994;2023-11-19T05:42:30;100243.34;;;1.75;92.87
75629;BME280;64213;46.452;16.994;2023-11-19T05:45:33;100245.00;;;1.79;91.97
75629;BME280;64213;46.452;16.994;2023-11-19T05:48:35;100242.34;;;1.80;91.68
75629;BME280;64213;46.452;16.994;2023-11-19T05:51:38;100236.13;;;1.84;91.54
75629;BME280;64213;46.452;16.994;2023-11-19T05:54:41;100241.25;;;1.89;91.22
75629;BME280;64213;46.452;16.994;2023-11-19T05:57:43;100242.09;;;1.90;90.72
75629;BME280;64213;46.452;16.994;2023-11-19T06:00:48;100248.88;;;1.97;90.50
75629;BME280;64213;46.452;16.994;2023-11-19T06:03:50;100242.69;;;2.01;90.64
75629;BME280;64213;46.452;16.994;2023-11-19T06:06:53;100231.31;;;2.03;90.31
75629;BME280;64213;46.452;16.994;2023-11-19T06:09:57;100225.22;;;2.04;90.23
75629;BME280;64213;46.452;16.994;2023-11-19T06:12:59;100219.09;;;2.05;89.75
75629;BME280;64213;46.452;16.994;2023-11-19T06:16:02;100206.03;;;2.05;89.81
75629;BME280;64213;46.452;16.994;2023-11-19T06:19:05;100200.69;;;2.10;89.65
75629;BME280;64213;46.452;16.994;2023-11-19T06:22:07;100197.22;;;2.11;89.41
75629;BME280;64213;46.452;16.994;2023-11-19T06:25:10;100202.25;;;2.17;88.75
75629;BME280;64213;46.452;16.994;2023-11-19T06:28:13;100196.00;;;2.23;88.14
75629;BME280;64213;46.452;16.994;2023-11-19T06:31:16;100191.53;;;2.26;87.68
75629;BME280;64213;46.452;16.994;2023-11-19T06:34:19;100186.91;;;2.36;87.28
75629;BME280;64213;46.452;16.994;2023-11-19T06:37:22;100184.19;;;2.41;87.03
75629;BME280;64213;46.452;16.994;2023-11-19T06:40:25;100198.84;;;2.46;87.18
75629;BME280;64213;46.452;16.994;2023-11-19T06:43:28;100204.84;;;2.50;87.00
75629;BME280;64213;46.452;16.994;2023-11-19T06:46:43;100198.59;;;2.55;86.65
75629;BME280;64213;46.452;16.994;2023-11-19T06:49:46;100187.16;;;2.60;86.42
75629;BME280;64213;46.452;16.994;2023-11-19T06:52:49;100185.22;;;2.65;86.18
75629;BME280;64213;46.452;16.994;2023-11-19T06:55:51;100191.28;;;2.67;86.07
75629;BME280;64213;46.452;16.994;2023-11-19T06:58:54;100164.94;;;2.45;85.89
75629;BME280;64213;46.452;16.994;2023-11-19T07:01:57;100184.44;;;2.63;86.16
75629;BME280;64213;46.452;16.994;2023-11-19T07:04:59;100175.59;;;2.68;86.08
75629;BME280;64213;46.452;16.994;2023-11-19T07:08:02;100175.34;;;2.76;85.84
75629;BME280;64213;46.452;16.994;2023-11-19T07:11:05;100168.22;;;2.81;85.59
75629;BME280;64213;46.452;16.994;2023-11-19T07:14:08;100163.78;;;2.85;84.98
75629;BME280;64213;46.452;16.994;2023-11-19T07:17:11;100163.63;;;2.89;85.25
75629;BME280;64213;46.452;16.994;2023-11-19T07:20:14;100164.34;;;2.94;84.72
75629;BME280;64213;46.452;16.994;2023-11-19T07:23:18;100174.69;;;2.97;84.70
75629;BME280;64213;46.452;16.994;2023-11-19T07:26:22;100157.19;;;2.99;84.41
75629;BME280;64213;46.452;16.994;2023-11-19T07:29:25;100154.56;;;3.01;84.63
75629;BME280;64213;46.452;16.994;2023-11-19T07:32:31;100166.78;;;3.00;84.35
75629;BME280;64213;46.452;16.994;2023-11-19T07:35:34;100179.69;;;3.05;84.14
75629;BME280;64213;46.452;16.994;2023-11-19T07:38:36;100176.13;;;3.08;83.96
75629;BME280;64213;46.452;16.994;2023-11-19T07:41:39;100178.72;;;3.08;83.56
75629;BME280;64213;46.452;16.994;2023-11-19T07:44:43;100195.12;;;3.13;84.30
75629;BME280;64213;46.452;16.994;2023-11-19T07:47:45;100193.47;;;3.10;84.10
75629;BME280;64213;46.452;16.994;2023-11-19T07:50:49;100209.06;;;3.13;83.69
75629;BME280;64213;46.452;16.994;2023-11-19T07:53:54;100204.72;;;3.12;84.00
75629;BME280;64213;46.452;16.994;2023-11-19T07:56:57;100198.53;;;3.15;83.62
75629;BME280;64213;46.452;16.994;2023-11-19T07:59:59;100181.94;;;3.16;84.01
75629;BME280;64213;46.452;16.994;2023-11-19T08:03:04;100170.91;;;3.08;84.14
75629;BME280;64213;46.452;16.994;2023-11-19T08:06:07;100182.19;;;3.08;84.27
75629;BME280;64213;46.452;16.994;2023-11-19T08:09:10;100168.31;;;3.06;84.12
75629;BME280;64213;46.452;16.994;2023-11-19T08:12:16;100174.09;;;3.16;84.74
75629;BME280;64213;46.452;16.994;2023-11-19T08:15:20;100178.38;;;3.18;84.52
75629;BME280;64213;46.452;16.994;2023-11-19T08:18:25;100171.41;;;3.19;84.54
75629;BME280;64213;46.452;16.994;2023-11-19T08:21:29;100160.06;;;3.20;84.95
75629;BME280;64213;46.452;16.994;2023-11-19T08:24:33;100143.72;;;3.13;84.65
75629;BME280;64213;46.452;16.994;2023-11-19T08:27:36;100118.25;;;3.20;84.72
75629;BME280;64213;46.452;16.994;2023-11-19T08:30:41;100086.22;;;3.13;85.08
75629;BME280;64213;46.452;16.994;2023-11-19T08:33:44;100105.16;;;3.20;84.83
75629;BME280;64213;46.452;16.994;2023-11-19T08:36:54;100087.47;;;3.28;84.99
75629;BME280;64213;46.452;16.994;2023-11-19T08:39:59;100080.22;;;3.36;84.28
75629;BME280;64213;46.452;16.994;2023-11-19T08:43:01;100070.44;;;3.41;83.96
75629;BME280;64213;46.452;16.994;2023-11-19T08:46:08;100080.91;;;3.41;84.09
75629;BME280;64213;46.452;16.994;2023-11-19T08:49:11;100083.28;;;3.49;83.57
75629;BME280;64213;46.452;16.994;2023-11-19T08:52:14;100090.63;;;3.63;83.78
75629;BME280;64213;46.452;16.994;2023-11-19T08:55:19;100104.44;;;3.66;82.38
75629;BME280;64213;46.452;16.994;2023-11-19T08:58:22;100123.16;;;3.81;81.98
75629;BME280;64213;46.452;16.994;2023-11-19T09:01:25;100146.28;;;3.93;81.92
75629;BME280;64213;46.452;16.994;2023-11-19T09:04:28;100135.75;;;3.94;81.04
75629;BME280;64213;46.452;16.994;2023-11-19T09:07:31;100144.41;;;3.96;79.94
75629;BME280;64213;46.452;16.994;2023-11-19T09:10:34;100130.25;;;4.02;80.39
75629;BME280;64213;46.452;16.994;2023-11-19T09:13:37;100137.81;;;4.10;80.13
75629;BME280;64213;46.452;16.994;2023-11-19T09:16:40;100137.66;;;4.14;79.63
75629;BME280;64213;46.452;16.994;2023-11-19T09:19:43;100114.72;;;4.21;79.43
75629;BME280;64213;46.452;16.994;2023-11-19T09:22:46;100117.91;;;4.29;78.99
75629;BME280;64213;46.452;16.994;2023-11-19T09:25:49;100112.44;;;4.35;78.61
75629;BME280;64213;46.452;16.994;2023-11-19T09:28:51;100099.78;;;4.47;78.40
75629;BME280;64213;46.452;16.994;2023-11-19T09:31:53;100088.97;;;4.56;77.52
75629;BME280;64213;46.452;16.994;2023-11-19T09:34:56;100088.72;;;4.62;77.28
75629;BME280;64213;46.452;16.994;2023-11-19T09:37:59;100100.63;;;4.71;76.15
75629;BME280;64213;46.452;16.994;2023-11-19T09:41:05;100091.97;;;4.90;76.42
75629;BME280;64213;46.452;16.994;2023-11-19T09:44:11;100080.97;;;4.82;74.98
75629;BME280;64213;46.452;16.994;2023-11-19T09:47:16;100080.06;;;5.04;75.61
75629;BME280;64213;46.452;16.994;2023-11-19T09:50:20;100071.53;;;5.21;74.15
75629;BME280;64213;46.452;16.994;2023-11-19T09:53:23;100065.44;;;5.20;74.08
75629;BME280;64213;46.452;16.994;2023-11-19T09:56:30;100053.06;;;5.24;73.44
75629;BME280;64213;46.452;16.994;2023-11-19T09:59:33;100046.81;;;5.26;72.72
75629;BME280;64213;46.452;16.994;2023-11-19T10:02:36;100034.63;;;5.46;72.14
75629;BME280;64213;46.452;16.994;2023-11-19T10:05:39;100027.41;;;5.51;70.50
75629;BME280;64213;46.452;16.994;2023-11-19T10:08:43;100006.09;;;5.58;70.71
75629;BME280;64213;46.452;16.994;2023-11-19T10:11:46;100000.09;;;5.55;70.50
75629;BME280;64213;46.452;16.994;2023-11-19T10:14:49;100003.78;;;5.51;69.70
75629;BME280;64213;46.452;16.994;2023-11-19T10:17:57;99988.63;;;5.57;68.74
75629;BME280;64213;46.452;16.994;2023-11-19T10:21:00;99986.97;;;5.75;68.53
75629;BME280;64213;46.452;16.994;2023-11-19T10:24:03;99998.03;;;5.82;68.09
75629;BME280;64213;46.452;16.994;2023-11-19T10:27:09;99987.72;;;5.77;67.80
75629;BME280;64213;46.452;16.994;2023-11-19T10:30:12;100003.78;;;5.71;68.62
75629;BME280;64213;46.452;16.994;2023-11-19T10:33:14;99995.91;;;5.71;68.54
75629;BME280;64213;46.452;16.994;2023-11-19T10:36:22;99984.47;;;5.72;69.05
75629;BME280;64213;46.452;16.994;2023-11-19T10:39:53;99968.31;;;5.81;69.51
75629;BME280;64213;46.452;16.994;2023-11-19T10:43:03;99976.25;;;6.00;69.14
75629;BME280;64213;46.452;16.994;2023-11-19T10:46:10;99975.22;;;6.03;68.22
75629;BME280;64213;46.452;16.994;2023-11-19T10:49:13;99947.69;;;5.93;68.86
75629;BME280;64213;46.452;16.994;2023-11-19T10:52:18;99948.75;;;6.08;68.67
75629;BME280;64213;46.452;16.994;2023-11-19T10:55:27;99943.34;;;6.29;67.76
75629;BME280;64213;46.452;16.994;2023-11-19T10:58:32;99931.56;;;6.38;67.73
75629;BME280;64213;46.452;16.994;2023-11-19T11:01:45;99937.59;;;6.58;67.00
75629;BME280;64213;46.452;16.994;2023-11-19T11:04:51;99938.09;;;6.83;66.33
75629;BME280;64213;46.452;16.994;2023-11-19T11:07:55;99925.84;;;6.82;66.25
75629;BME280;64213;46.452;16.994;2023-11-19T11:10:58;99918.97;;;6.62;66.33
75629;BME280;64213;46.452;16.994;2023-11-19T11:14:02;99918.56;;;6.70;67.24
75629;BME280;64213;46.452;16.994;2023-11-19T11:17:09;99911.44;;;6.37;67.65
75629;BME280;64213;46.452;16.994;2023-11-19T11:20:14;99894.66;;;6.22;67.73
75629;BME280;64213;46.452;16.994;2023-11-19T11:23:53;99873.06;;;6.16;68.03
75629;BME280;64213;46.452;16.994;2023-11-19T11:27:02;99875.50;;;6.38;67.82
75629;BME280;64213;46.452;16.994;2023-11-19T11:30:35;99870.19;;;6.57;66.83
75629;BME280;64213;46.452;16.994;2023-11-19T11:37:19;99880.84;;;7.06;66.41
75629;BME280;64213;46.452;16.994;2023-11-19T11:40:26;99884.38;;;7.22;65.82
75629;BME280;64213;46.452;16.994;2023-11-19T11:43:47;99885.09;;;7.57;63.95
75629;BME280;64213;46.452;16.994;2023-11-19T11:46:53;99882.50;;;7.89;64.23
75629;BME280;64213;46.452;16.994;2023-11-19T11:50:06;99868.88;;;8.12;63.30
75629;BME280;64213;46.452;16.994;2023-11-19T11:53:17;99860.88;;;8.30;61.87
75629;BME280;64213;46.452;16.994;2023-11-19T11:56:20;99854.09;;;8.10;61.66
75629;BME280;64213;46.452;16.994;2023-11-19T11:59:23;99867.38;;;7.92;62.91
75629;BME280;64213;46.452;16.994;2023-11-19T12:02:26;99880.84;;;7.55;63.65
75629;BME280;64213;46.452;16.994;2023-11-19T12:05:29;99866.94;;;7.19;64.69
75629;BME280;64213;46.452;16.994;2023-11-19T12:08:34;99879.78;;;6.92;65.48
75629;BME280;64213;46.452;16.994;2023-11-19T12:15:15;99861.66;;;7.04;65.73
75629;BME280;64213;46.452;16.994;2023-11-19T12:18:18;99859.97;;;7.67;64.34
75629;BME280;64213;46.452;16.994;2023-11-19T12:21:29;99857.16;;;7.86;63.07
75629;BME280;64213;46.452;16.994;2023-11-19T12:24:33;99842.84;;;8.38;62.00
75629;BME280;64213;46.452;16.994;2023-11-19T12:27:40;99848.75;;;8.11;62.82
75629;BME280;64213;46.452;16.994;2023-11-19T12:30:43;99834.75;;;8.25;62.40
75629;BME280;64213;46.452;16.994;2023-11-19T12:33:46;99836.03;;;8.34;61.91
75629;BME280;64213;46.452;16.994;2023-11-19T12:36:50;99819.72;;;8.43;62.06
75629;BME280;64213;46.452;16.994;2023-11-19T12:39:52;99828.41;;;8.59;61.18
75629;BME280;64213;46.452;16.994;2023-11-19T12:42:55;99829.31;;;8.44;61.13
75629;BME280;64213;46.452;16.994;2023-11-19T12:45:58;99836.03;;;8.34;62.15
75629;BME280;64213;46.452;16.994;2023-11-19T12:49:01;99831.72;;;8.33;62.01
75629;BME280;64213;46.452;16.994;2023-11-19T12:52:12;99830.09;;;8.30;62.49
75629;BME280;64213;46.452;16.994;2023-11-19T12:55:26;99819.09;;;8.08;63.12
75629;BME280;64213;46.452;16.994;2023-11-19T12:58:35;99809.63;;;8.20;63.49
75629;BME280;64213;46.452;16.994;2023-11-19T13:01:38;99795.34;;;8.24;63.34
75629;BME280;64213;46.452;16.994;2023-11-19T13:04:42;99798.16;;;8.21;63.26
75629;BME280;64213;46.452;16.994;2023-11-19T13:07:45;99793.63;;;8.23;63.23
75629;BME280;64213;46.452;16.994;2023-11-19T13:10:51;99782.81;;;8.43;63.22
75629;BME280;64213;46.452;16.994;2023-11-19T13:13:58;99773.63;;;8.34;63.57
75629;BME280;64213;46.452;16.994;2023-11-19T13:17:02;99781.19;;;8.41;63.48
75629;BME280;64213;46.452;16.994;2023-11-19T13:20:05;99786.47;;;8.41;63.98
75629;BME280;64213;46.452;16.994;2023-11-19T13:23:08;99782.38;;;8.35;64.08
75629;BME280;64213;46.452;16.994;2023-11-19T13:26:11;99782.00;;;8.27;64.33
75629;BME280;64213;46.452;16.994;2023-11-19T13:29:14;99781.50;;;8.20;64.87
75629;BME280;64213;46.452;16.994;2023-11-19T13:32:17;99788.75;;;8.01;65.41
75629;BME280;64213;46.452;16.994;2023-11-19T13:35:20;99792.47;;;7.82;66.28
75629;BME280;64213;46.452;16.994;2023-11-19T13:38:23;99788.22;;;7.80;66.81
75629;BME280;64213;46.452;16.994;2023-11-19T13:41:26;99800.59;;;7.78;66.83
75629;BME280;64213;46.452;16.994;2023-11-19T13:44:28;99794.75;;;7.88;67.23
75629;BME280;64213;46.452;16.994;2023-11-19T13:47:31;99795.81;;;7.84;66.63
75629;BME280;64213;46.452;16.994;2023-11-19T13:50:34;99793.47;;;7.80;66.90
75629;BME280;64213;46.452;16.994;2023-11-19T13:53:36;99801.88;;;7.86;66.67
75629;BME280;64213;46.452;16.994;2023-11-19T13:56:42;99806.69;;;7.94;67.12
75629;BME280;64213;46.452;16.994;2023-11-19T13:59:47;99799.34;;;7.85;67.20
75629;BME280;64213;46.452;16.994;2023-11-19T14:02:49;99796.44;;;7.89;67.93
75629;BME280;64213;46.452;16.994;2023-11-19T14:05:52;99799.69;;;7.79;68.17
75629;BME280;64213;46.452;16.994;2023-11-19T14:08:57;99786.88;;;7.73;68.14
75629;BME280;64213;46.452;16.994;2023-11-19T14:12:00;99792.12;;;7.73;68.88
75629;BME280;64213;46.452;16.994;2023-11-19T14:15:03;99799.84;;;7.76;68.84
75629;BME280;64213;46.452;16.994;2023-11-19T14:18:07;99799.59;;;7.64;69.56
75629;BME280;64213;46.452;16.994;2023-11-19T14:21:10;99784.47;;;7.52;69.59
75629;BME280;64213;46.452;16.994;2023-11-19T14:24:12;99782.78;;;7.51;69.76
75629;BME280;64213;46.452;16.994;2023-11-19T14:27:15;99798.91;;;7.45;70.46
75629;BME280;64213;46.452;16.994;2023-11-19T14:30:19;99786.38;;;7.34;71.12
75629;BME280;64213;46.452;16.994;2023-11-19T14:33:21;99793.47;;;7.16;72.07
75629;BME280;64213;46.452;16.994;2023-11-19T14:36:23;99800.34;;;7.19;71.73
75629;BME280;64213;46.452;16.994;2023-11-19T14:39:26;99798.03;;;7.13;72.93
75629;BME280;64213;46.452;16.994;2023-11-19T14:42:29;99790.38;;;7.08;73.05
75629;BME280;64213;46.452;16.994;2023-11-19T14:45:31;99780.72;;;6.93;74.05
75629;BME280;64213;46.452;16.994;2023-11-19T14:48:46;99781.41;;;6.79;74.84
75629;BME280;64213;46.452;16.994;2023-11-19T14:51:48;99775.72;;;6.71;75.48
75629;BME280;64213;46.452;16.994;2023-11-19T14:54:51;99785.72;;;6.64;75.43
75629;BME280;64213;46.452;16.994;2023-11-19T14:57:56;99787.87;;;6.56;75.27
75629;BME280;64213;46.452;16.994;2023-11-19T15:01:13;99787.28;;;6.51;76.40
75629;BME280;64213;46.452;16.994;2023-11-19T15:04:16;99797.47;;;6.40;76.69
75629;BME280;64213;46.452;16.994;2023-11-19T15:07:19;99798.78;;;6.31;77.18
75629;BME280;64213;46.452;16.994;2023-11-19T15:10:24;99807.06;;;6.23;77.74
75629;BME280;64213;46.452;16.994;2023-11-19T15:13:27;99820.56;;;6.16;78.32
75629;BME280;64213;46.452;16.994;2023-11-19T15:16:30;99830.50;;;6.09;78.33
75629;BME280;64213;46.452;16.994;2023-11-19T15:19:35;99835.50;;;5.96;79.60
75629;BME280;64213;46.452;16.994;2023-11-19T15:22:38;99826.94;;;5.93;79.61
75629;BME280;64213;46.452;16.994;2023-11-19T15:25:40;99814.06;;;5.87;80.31
75629;BME280;64213;46.452;16.994;2023-11-19T15:28:44;99817.00;;;5.80;80.50
75629;BME280;64213;46.452;16.994;2023-11-19T15:31:46;99810.34;;;5.73;81.13
75629;BME280;64213;46.452;16.994;2023-11-19T15:34:49;99812.34;;;5.68;81.41
75629;BME280;64213;46.452;16.994;2023-11-19T15:37:52;99814.41;;;5.62;81.83
75629;BME280;64213;46.452;16.994;2023-11-19T15:40:55;99832.00;;;5.59;82.09
75629;BME280;64213;46.452;16.994;2023-11-19T15:43:58;99835.75;;;5.54;82.25
75629;BME280;64213;46.452;16.994;2023-11-19T15:47:01;99829.00;;;5.48;82.86
75629;BME280;64213;46.452;16.994;2023-11-19T15:50:04;99818.50;;;5.48;82.84
75629;BME280;64213;46.452;16.994;2023-11-19T15:53:07;99821.78;;;5.34;83.26
75629;BME280;64213;46.452;16.994;2023-11-19T15:56:13;99830.50;;;5.35;83.29
75629;BME280;64213;46.452;16.994;2023-11-19T15:59:15;99824.34;;;5.36;83.44
75629;BME280;64213;46.452;16.994;2023-11-19T16:02:18;99817.37;;;5.35;83.63
75629;BME280;64213;46.452;16.994;2023-11-19T16:05:22;99812.28;;;5.32;83.73
75629;BME280;64213;46.452;16.994;2023-11-19T16:08:25;99799.25;;;5.30;83.61
75629;BME280;64213;46.452;16.994;2023-11-19T16:11:28;99786.34;;;5.26;83.46
75629;BME280;64213;46.452;16.994;2023-11-19T16:14:35;99784.09;;;5.18;84.67